sensor_id;sensor_type;location;lat;lon;timestamp;pressure;altitude;pressure_sealevel;temperature;humidity
70968;BME280;58629;48.808;8.820;2023-05-11T00:01:06;96945.09;;;10.06;99.04
70968;BME280;58629;48.808;8.820;2023-05-11T00:03:31;96937.31;;;9.99;97.17
70968;BME280;58629;48.808;8.820;2023-05-11T00:05:57;96933.81;;;10.02;97.30
70968;BME280;58629;48.808;8.820;2023-05-11T00:08:23;96939.06;;;10.06;97.24
70968;BME280;58629;48.808;8.820;2023-05-11T00:10:48;96939.81;;;10.06;96.42
70968;BME280;58629;48.808;8.820;2023-05-11T00:13:13;96939.00;;;10.09;97.39
70968;BME280;58629;48.808;8.820;2023-05-11T00:15:39;96940.47;;;10.14;98.21
70968;BME280;58629;48.808;8.820;2023-05-11T00:18:04;96939.78;;;10.10;95.39
70968;BME280;58629;48.808;8.820;2023-05-11T00:20:29;96940.81;;;10.16;97.52
70968;BME280;58629;48.808;8.820;2023-05-11T00:22:55;96941.47;;;10.20;98.51
70968;BME280;58629;48.808;8.820;2023-05-11T00:25:20;96942.97;;;10.21;98.98
70968;BME280;58629;48.808;8.820;2023-05-11T00:27:59;96941.81;;;10.22;99.81
70968;BME280;58629;48.808;8.820;2023-05-11T00:30:25;96935.78;;;10.21;98.94
70968;BME280;58629;48.808;8.820;2023-05-11T00:32:50;96933.88;;;10.22;100.00
70968;BME280;58629;48.808;8.820;2023-05-11T00:35:16;96928.97;;;10.20;100.00
70968;BME280;58629;48.808;8.820;2023-05-11T00:37:41;96932.38;;;10.21;100.00
70968;BME280;58629;48.808;8.820;2023-05-11T00:40:07;96934.94;;;10.24;100.00
70968;BME280;58629;48.808;8.820;2023-05-11T00:42:33;96927.75;;;10.25;100.00
70968;BME280;58629;48.808;8.820;2023-05-11T00:44:58;96925.13;;;10.25;99.91
70968;BME280;58629;48.808;8.820;2023-05-11T00:47:23;96921.00;;;10.24;98.15
70968;BME280;58629;48.808;8.820;2023-05-11T00:49:51;96916.09;;;10.22;96.88
70968;BME280;58629;48.808;8.820;2023-05-11T00:52:17;96917.25;;;10.21;96.62
70968;BME280;58629;48.808;8.820;2023-05-11T00:54:43;96921.34;;;10.26;97.06
70968;BME280;58629;48.808;8.820;2023-05-11T00:57:08;96926.63;;;10.26;96.82
70968;BME280;58629;48.808;8.820;2023-05-11T00:59:34;96919.03;;;10.28;96.88
70968;BME280;58629;48.808;8.820;2023-05-11T01:01:59;96923.22;;;10.25;96.13
70968;BME280;58629;48.808;8.820;2023-05-11T01:04:25;96925.03;;;10.28;96.27
70968;BME280;58629;48.808;8.820;2023-05-11T01:06:59;96925.72;;;10.32;97.10
70968;BME280;58629;48.808;8.820;2023-05-11T01:09:40;96924.59;;;10.33;96.55
70968;BME280;58629;48.808;8.820;2023-05-11T01:12:19;96918.94;;;10.31;95.89
70968;BME280;58629;48.808;8.820;2023-05-11T01:14:58;96924.66;;;10.30;96.51
70968;BME280;58629;48.808;8.820;2023-05-11T01:17:33;96920.91;;;10.27;95.64
70968;BME280;58629;48.808;8.820;2023-05-11T01:20:05;96920.16;;;10.27;95.05
70968;BME280;58629;48.808;8.820;2023-05-11T01:30:50;96921.94;;;10.33;99.60
70968;BME280;58629;48.808;8.820;2023-05-11T01:33:25;96916.63;;;10.33;100.00
70968;BME280;58629;48.808;8.820;2023-05-11T01:35:55;96914.06;;;10.30;99.83
70968;BME280;58629;48.808;8.820;2023-05-11T01:38:25;96921.59;;;10.31;100.00
70968;BME280;58629;48.808;8.820;2023-05-11T01:40:56;96918.69;;;10.26;100.00
70968;BME280;58629;48.808;8.820;2023-05-11T01:43:24;96918.34;;;10.24;100.00
70968;BME280;58629;48.808;8.820;2023-05-11T01:45:52;96918.06;;;10.18;100.00
70968;BME280;58629;48.808;8.820;2023-05-11T01:48:22;96922.22;;;10.19;100.00
70968;BME280;58629;48.808;8.820;2023-05-11T01:50:49;96920.78;;;10.15;100.00
70968;BME280;58629;48.808;8.820;2023-05-11T01:53:16;96920.78;;;10.15;100.00
70968;BME280;58629;48.808;8.820;2023-05-11T01:55:42;96915.56;;;10.11;100.00
70968;BME280;58629;48.808;8.820;2023-05-11T01:58:12;96921.13;;;10.17;100.00
70968;BME280;58629;48.808;8.820;2023-05-11T02:00:39;96920.03;;;10.14;100.00
70968;BME280;58629;48.808;8.820;2023-05-11T02:03:06;96921.47;;;10.19;100.00
70968;BME280;58629;48.808;8.820;2023-05-11T02:05:32;96918.72;;;10.22;100.00
70968;BME280;58629;48.808;8.820;2023-05-11T02:08:00;96930.06;;;10.23;100.00
70968;BME280;58629;48.808;8.820;2023-05-11T02:10:27;96925.88;;;10.25;100.00
70968;BME280;58629;48.808;8.820;2023-05-11T02:12:53;96920.59;;;10.25;100.00
70968;BME280;58629;48.808;8.820;2023-05-11T02:15:21;96921.78;;;10.21;100.00
70968;BME280;58629;48.808;8.820;2023-05-11T02:17:46;96918.34;;;10.24;100.00
70968;BME280;58629;48.808;8.820;2023-05-11T02:20:12;96926.63;;;10.26;100.00
70968;BME280;58629;48.808;8.820;2023-05-11T02:22:40;96926.34;;;10.20;100.00
70968;BME280;58629;48.808;8.820;2023-05-11T02:25:08;96920.31;;;10.20;100.00
70968;BME280;58629;48.808;8.820;2023-05-11T02:27:34;96927.84;;;10.21;100.00
70968;BME280;58629;48.808;8.820;2023-05-11T02:30:01;96924.84;;;10.19;100.00
70968;BME280;58629;48.808;8.820;2023-05-11T02:32:27;96924.09;;;10.19;100.00
70968;BME280;58629;48.808;8.820;2023-05-11T02:35:00;96925.28;;;10.18;100.00
70968;BME280;58629;48.808;8.820;2023-05-11T02:37:26;96925.66;;;10.16;100.00
70968;BME280;58629;48.808;8.820;2023-05-11T02:40:02;96924.50;;;10.17;100.00
70968;BME280;58629;48.808;8.820;2023-05-11T02:42:33;96922.63;;;10.18;100.00
70968;BME280;58629;48.808;8.820;2023-05-11T02:45:03;96914.28;;;10.19;100.00
70968;BME280;58629;48.808;8.820;2023-05-11T02:47:31;96919.91;;;10.21;100.00
70968;BME280;58629;48.808;8.820;2023-05-11T02:50:00;96914.28;;;10.19;100.00
70968;BME280;58629;48.808;8.820;2023-05-11T02:52:28;96924.50;;;10.17;100.00
70968;BME280;58629;48.808;8.820;2023-05-11T02:54:54;96926.81;;;10.15;100.00
70968;BME280;58629;48.808;8.820;2023-05-11T02:57:21;96924.50;;;10.17;100.00
70968;BME280;58629;48.808;8.820;2023-05-11T02:59:48;96924.09;;;10.19;100.00
70968;BME280;58629;48.808;8.820;2023-05-11T03:02:14;96923.75;;;10.17;100.00
70968;BME280;58629;48.808;8.820;2023-05-11T03:04:39;96918.22;;;10.11;100.00
70968;BME280;58629;48.808;8.820;2023-05-11T03:07:06;96920.44;;;10.13;100.00
70968;BME280;58629;48.808;8.820;2023-05-11T03:09:32;96920.84;;;10.11;100.00
70968;BME280;58629;48.808;8.820;2023-05-11T03:11:58;96920.69;;;9.99;100.00
70968;BME280;58629;48.808;8.820;2023-05-11T03:14:24;96920.41;;;9.93;100.00
70968;BME280;58629;48.808;8.820;2023-05-11T03:16:50;96913.63;;;9.92;100.00
70968;BME280;58629;48.808;8.820;2023-05-11T03:19:16;96918.19;;;9.92;100.00
70968;BME280;58629;48.808;8.820;2023-05-11T03:21:42;96915.94;;;9.90;100.00
70968;BME280;58629;48.808;8.820;2023-05-11T03:24:08;96924.22;;;9.92;100.00
70968;BME280;58629;48.808;8.820;2023-05-11T03:26:34;96917.34;;;9.95;100.00
70968;BME280;58629;48.808;8.820;2023-05-11T03:29:01;96914.63;;;9.98;100.00
70968;BME280;58629;48.808;8.820;2023-05-11T03:31:27;96915.25;;;10.06;100.00
70968;BME280;58629;48.808;8.820;2023-05-11T03:33:53;96914.84;;;10.07;100.00
70968;BME280;58629;48.808;8.820;2023-05-11T03:36:19;96922.00;;;10.10;100.00
70968;BME280;58629;48.808;8.820;2023-05-11T03:38:46;96919.31;;;10.14;100.00
70968;BME280;58629;48.808;8.820;2023-05-11T03:41:14;96909.53;;;10.11;100.00
70968;BME280;58629;48.808;8.820;2023-05-11T03:43:41;96912.91;;;10.11;100.00
70968;BME280;58629;48.808;8.820;2023-05-11T03:46:10;96912.31;;;10.00;100.00
70968;BME280;58629;48.808;8.820;2023-05-11T03:48:38;96915.25;;;9.86;100.00
70968;BME280;58629;48.808;8.820;2023-05-11T03:51:04;96909.81;;;9.74;100.00
70968;BME280;58629;48.808;8.820;2023-05-11T03:53:30;96907.28;;;9.67;100.00
70968;BME280;58629;48.808;8.820;2023-05-11T03:55:56;96911.16;;;9.62;100.00
70968;BME280;58629;48.808;8.820;2023-05-11T03:58:22;96906.72;;;9.55;100.00
70968;BME280;58629;48.808;8.820;2023-05-11T04:00:49;96904.84;;;9.56;100.00
70968;BME280;58629;48.808;8.820;2023-05-11T04:03:14;96901.38;;;9.59;100.00
70968;BME280;58629;48.808;8.820;2023-05-11T04:05:40;96906.22;;;9.64;100.00
70968;BME280;58629;48.808;8.820;2023-05-11T04:08:05;96906.91;;;9.68;100.00
70968;BME280;58629;48.808;8.820;2023-05-11T04:10:31;96896.53;;;9.77;100.00
70968;BME280;58629;48.808;8.820;2023-05-11T04:12:56;96902.03;;;9.86;100.00
70968;BME280;58629;48.808;8.820;2023-05-11T04:15:21;96904.53;;;9.93;100.00
70968;BME280;58629;48.808;8.820;2023-05-11T04:17:47;96901.81;;;9.97;100.00
70968;BME280;58629;48.808;8.820;2023-05-11T04:20:12;96904.13;;;9.95;100.00
70968;BME280;58629;48.808;8.820;2023-05-11T04:22:37;96903.50;;;9.87;100.00
70968;BME280;58629;48.808;8.820;2023-05-11T04:25:03;96902.72;;;9.90;100.00
70968;BME280;58629;48.808;8.820;2023-05-11T04:27:31;96897.00;;;9.92;100.00
70968;BME280;58629;48.808;8.820;2023-05-11T04:29:57;96896.34;;;9.88;100.00
70968;BME280;58629;48.808;8.820;2023-05-11T04:32:22;96890.78;;;9.82;100.00
70968;BME280;58629;48.808;8.820;2023-05-11T04:34:47;96898.06;;;9.75;100.00
70968;BME280;58629;48.808;8.820;2023-05-11T04:37:12;96904.13;;;9.75;100.00
70968;BME280;58629;48.808;8.820;2023-05-11T04:39:38;96905.06;;;9.85;100.00
70968;BME280;58629;48.808;8.820;2023-05-11T04:42:03;96901.47;;;9.95;100.00
70968;BME280;58629;48.808;8.820;2023-05-11T04:44:28;96903.00;;;9.96;100.00
70968;BME280;58629;48.808;8.820;2023-05-11T04:46:54;96911.19;;;10.01;100.00
70968;BME280;58629;48.808;8.820;2023-05-11T04:49:20;96909.28;;;10.02;100.00
70968;BME280;58629;48.808;8.820;2023-05-11T04:51:46;96904.34;;;10.04;100.00
70968;BME280;58629;48.808;8.820;2023-05-11T04:54:11;96907.34;;;10.06;100.00
70968;BME280;58629;48.808;8.820;2023-05-11T04:56:36;96911.03;;;10.08;100.00
70968;BME280;58629;48.808;8.820;2023-05-11T04:59:07;96908.38;;;10.12;100.00
70968;BME280;58629;48.808;8.820;2023-05-11T05:01:33;96911.78;;;10.09;100.00
70968;BME280;58629;48.808;8.820;2023-05-11T05:03:58;96911.13;;;10.05;100.00
70968;BME280;58629;48.808;8.820;2023-05-11T05:06:23;96915.25;;;10.06;100.00
70968;BME280;58629;48.808;8.820;2023-05-11T05:08:49;96909.97;;;10.06;100.00
70968;BME280;58629;48.808;8.820;2023-05-11T05:11:14;96918.63;;;10.06;100.00
70968;BME280;58629;48.808;8.820;2023-05-11T05:13:40;96912.09;;;10.14;100.00
70968;BME280;58629;48.808;8.820;2023-05-11T05:16:05;96915.63;;;10.27;100.00
70968;BME280;58629;48.808;8.820;2023-05-11T05:18:30;96912.56;;;10.29;100.00
70968;BME280;58629;48.808;8.820;2023-05-11T05:20:56;96913.41;;;10.26;100.00
70968;BME280;58629;48.808;8.820;2023-05-11T05:23:21;96912.97;;;10.27;100.00
70968;BME280;58629;48.808;8.820;2023-05-11T05:25:46;96913.66;;;10.31;100.00
70968;BME280;58629;48.808;8.820;2023-05-11T05:28:12;96918.59;;;10.29;100.00
70968;BME280;58629;48.808;8.820;2023-05-11T05:30:37;96915.38;;;10.38;100.00
70968;BME280;58629;48.808;8.820;2023-05-11T05:33:02;96914.72;;;10.34;100.00
70968;BME280;58629;48.808;8.820;2023-05-11T05:35:27;96913.72;;;10.28;100.00
70968;BME280;58629;48.808;8.820;2023-05-11T05:37:53;96912.81;;;10.34;100.00
70968;BME280;58629;48.808;8.820;2023-05-11T05:40:18;96918.13;;;10.34;100.00
70968;BME280;58629;48.808;8.820;2023-05-11T05:42:43;96914.19;;;10.23;100.00
70968;BME280;58629;48.808;8.820;2023-05-11T05:45:09;96921.88;;;10.17;100.00
70968;BME280;58629;48.808;8.820;2023-05-11T05:47:34;96922.88;;;10.23;100.00
70968;BME280;58629;48.808;8.820;2023-05-11T05:49:59;96924.78;;;10.23;100.00
70968;BME280;58629;48.808;8.820;2023-05-11T05:52:25;96924.03;;;10.22;100.00
70968;BME280;58629;48.808;8.820;2023-05-11T05:54:50;96924.44;;;10.21;100.00
70968;BME280;58629;48.808;8.820;2023-05-11T05:57:15;96924.31;;;10.28;100.00
70968;BME280;58629;48.808;8.820;2023-05-11T05:59:41;96918.13;;;10.34;100.00
70968;BME280;58629;48.808;8.820;2023-05-11T06:02:07;96921.09;;;10.36;100.00
70968;BME280;58629;48.808;8.820;2023-05-11T06:04:32;96927.16;;;10.37;100.00
70968;BME280;58629;48.808;8.820;2023-05-11T06:06:58;96923.75;;;10.36;99.11
70968;BME280;58629;48.808;8.820;2023-05-11T06:09:24;96926.31;;;10.40;98.97
70968;BME280;58629;48.808;8.820;2023-05-11T06:11:49;96927.63;;;10.52;99.65
70968;BME280;58629;48.808;8.820;2023-05-11T06:14:14;96919.25;;;10.53;98.15
70968;BME280;58629;48.808;8.820;2023-05-11T06:16:40;96923.91;;;10.65;98.13
70968;BME280;58629;48.808;8.820;2023-05-11T06:19:06;96923.34;;;10.74;99.33
70968;BME280;58629;48.808;8.820;2023-05-11T06:21:32;96921.97;;;10.85;98.33
70968;BME280;58629;48.808;8.820;2023-05-11T06:23:57;96922.47;;;10.96;98.26
70968;BME280;58629;48.808;8.820;2023-05-11T06:26:22;96923.38;;;11.06;99.28
70968;BME280;58629;48.808;8.820;2023-05-11T06:28:49;96921.25;;;11.17;97.04
70968;BME280;58629;48.808;8.820;2023-05-11T06:31:14;96916.66;;;11.17;92.53
70968;BME280;58629;48.808;8.820;2023-05-11T06:33:40;96923.81;;;11.20;93.00
70968;BME280;58629;48.808;8.820;2023-05-11T06:36:05;96920.31;;;11.07;91.97
70968;BME280;58629;48.808;8.820;2023-05-11T06:38:31;96923.81;;;11.20;94.80
70968;BME280;58629;48.808;8.820;2023-05-11T06:40:56;96921.63;;;11.31;93.34
70968;BME280;58629;48.808;8.820;2023-05-11T06:43:22;96920.41;;;11.36;92.35
70968;BME280;58629;48.808;8.820;2023-05-11T06:45:47;96918.31;;;11.44;90.92
70968;BME280;58629;48.808;8.820;2023-05-11T06:48:12;96924.63;;;11.50;89.42
70968;BME280;58629;48.808;8.820;2023-05-11T06:50:38;96918.81;;;11.55;89.27
70968;BME280;58629;48.808;8.820;2023-05-11T06:53:03;96920.06;;;11.66;90.34
70968;BME280;58629;48.808;8.820;2023-05-11T06:55:29;96914.34;;;11.68;89.51
70968;BME280;58629;48.808;8.820;2023-05-11T06:57:54;96925.94;;;11.74;88.72
70968;BME280;58629;48.808;8.820;2023-05-11T07:00:19;96921.19;;;11.65;89.51
70968;BME280;58629;48.808;8.820;2023-05-11T07:02:45;96919.53;;;11.55;89.32
70968;BME280;58629;48.808;8.820;2023-05-11T07:05:10;96918.81;;;11.55;88.65
70968;BME280;58629;48.808;8.820;2023-05-11T07:07:37;96909.94;;;11.45;87.94
70968;BME280;58629;48.808;8.820;2023-05-11T07:10:03;96926.19;;;11.47;87.45
70968;BME280;58629;48.808;8.820;2023-05-11T07:12:28;96926.13;;;11.51;90.20
70968;BME280;58629;48.808;8.820;2023-05-11T07:14:53;96927.72;;;11.61;89.06
70968;BME280;58629;48.808;8.820;2023-05-11T07:17:19;96930.69;;;11.66;86.85
70968;BME280;58629;48.808;8.820;2023-05-11T07:19:44;96930.16;;;11.55;90.61
70968;BME280;58629;48.808;8.820;2023-05-11T07:22:09;96929.50;;;11.51;87.28
70968;BME280;58629;48.808;8.820;2023-05-11T07:24:35;96927.44;;;11.59;87.38
70968;BME280;58629;48.808;8.820;2023-05-11T07:27:01;96929.66;;;11.60;85.93
70968;BME280;58629;48.808;8.820;2023-05-11T07:29:26;96931.78;;;11.65;87.02
70968;BME280;58629;48.808;8.820;2023-05-11T07:31:52;96936.31;;;11.68;87.43
70968;BME280;58629;48.808;8.820;2023-05-11T07:34:17;96935.63;;;11.80;88.82
70968;BME280;58629;48.808;8.820;2023-05-11T07:36:42;96941.06;;;11.89;87.99
70968;BME280;58629;48.808;8.820;2023-05-11T07:39:08;96938.84;;;11.88;85.43
70968;BME280;58629;48.808;8.820;2023-05-11T07:41:34;96942.13;;;11.92;86.34
70968;BME280;58629;48.808;8.820;2023-05-11T07:44:00;96940.50;;;11.82;83.29
70968;BME280;58629;48.808;8.820;2023-05-11T07:46:25;96940.47;;;11.98;85.00
70968;BME280;58629;48.808;8.820;2023-05-11T07:48:51;96939.13;;;12.06;86.78
70968;BME280;58629;48.808;8.820;2023-05-11T07:51:16;96936.16;;;12.16;86.85
70968;BME280;58629;48.808;8.820;2023-05-11T07:53:41;96939.78;;;12.10;88.25
70968;BME280;58629;48.808;8.820;2023-05-11T07:56:07;96935.34;;;11.91;83.36
70968;BME280;58629;48.808;8.820;2023-05-11T07:58:32;96945.09;;;12.10;85.41
70968;BME280;58629;48.808;8.820;2023-05-11T08:00:57;96939.91;;;12.19;86.67
70968;BME280;58629;48.808;8.820;2023-05-11T08:03:23;96939.28;;;12.28;85.78
70968;BME280;58629;48.808;8.820;2023-05-11T08:05:48;96939.84;;;12.35;87.51
70968;BME280;58629;48.808;8.820;2023-05-11T08:08:13;96949.19;;;12.40;85.25
70968;BME280;58629;48.808;8.820;2023-05-11T08:10:40;96946.53;;;12.40;83.44
70968;BME280;58629;48.808;8.820;2023-05-11T08:13:05;96940.28;;;12.46;85.25
70968;BME280;58629;48.808;8.820;2023-05-11T08:15:30;96943.50;;;12.54;85.24
70968;BME280;58629;48.808;8.820;2023-05-11T08:17:56;96936.47;;;12.60;84.78
70968;BME280;58629;48.808;8.820;2023-05-11T08:20:21;96937.75;;;12.68;86.33
70968;BME280;58629;48.808;8.820;2023-05-11T08:22:47;96937.88;;;12.77;83.99
70968;BME280;58629;48.808;8.820;2023-05-11T08:25:13;96940.75;;;12.82;84.48
70968;BME280;58629;48.808;8.820;2023-05-11T08:27:38;96946.75;;;12.58;82.80
70968;BME280;58629;48.808;8.820;2023-05-11T08:30:04;96943.91;;;12.65;83.24
70968;BME280;58629;48.808;8.820;2023-05-11T08:32:29;96949.66;;;12.63;83.49
70968;BME280;58629;48.808;8.820;2023-05-11T08:34:55;96945.94;;;12.61;80.52
70968;BME280;58629;48.808;8.820;2023-05-11T08:37:21;96948.91;;;12.63;85.70
70968;BME280;58629;48.808;8.820;2023-05-11T08:39:46;96945.09;;;12.76;82.41
70968;BME280;58629;48.808;8.820;2023-05-11T08:42:14;96942.53;;;12.60;82.11
70968;BME280;58629;48.808;8.820;2023-05-11T08:44:41;96943.28;;;12.61;82.13
70968;BME280;58629;48.808;8.820;2023-05-11T08:47:07;96951.34;;;12.70;81.75
70968;BME280;58629;48.808;8.820;2023-05-11T08:49:33;96937.84;;;12.52;78.16
70968;BME280;58629;48.808;8.820;2023-05-11T08:52:02;96944.53;;;12.44;82.88
70968;BME280;58629;48.808;8.820;2023-05-11T08:54:28;96941.72;;;12.35;84.40
70968;BME280;58629;48.808;8.820;2023-05-11T08:56:54;96941.97;;;12.40;84.47
70968;BME280;58629;48.808;8.820;2023-05-11T08:59:20;96940.75;;;12.29;83.32
70968;BME280;58629;48.808;8.820;2023-05-11T09:01:46;96945.81;;;12.10;84.60
70968;BME280;58629;48.808;8.820;2023-05-11T09:04:13;96947.84;;;12.19;83.45
70968;BME280;58629;48.808;8.820;2023-05-11T09:06:39;96947.25;;;12.40;84.35
70968;BME280;58629;48.808;8.820;2023-05-11T09:09:05;96946.34;;;12.47;83.97
70968;BME280;58629;48.808;8.820;2023-05-11T09:11:30;96946.44;;;12.56;85.61
70968;BME280;58629;48.808;8.820;2023-05-11T09:13:56;96949.78;;;12.72;85.22
70968;BME280;58629;48.808;8.820;2023-05-11T09:16:21;96948.06;;;12.53;85.41
70968;BME280;58629;48.808;8.820;2023-05-11T09:18:51;96947.19;;;12.56;84.15
70968;BME280;58629;48.808;8.820;2023-05-11T09:21:18;96944.81;;;12.33;82.64
70968;BME280;58629;48.808;8.820;2023-05-11T09:23:43;96946.94;;;12.38;82.55
70968;BME280;58629;48.808;8.820;2023-05-11T09:26:19;96942.53;;;12.48;85.25
70968;BME280;58629;48.808;8.820;2023-05-11T09:28:49;96949.38;;;12.33;83.29
70968;BME280;58629;48.808;8.820;2023-05-11T09:31:44;96946.00;;;12.45;83.47
70968;BME280;58629;48.808;8.820;2023-05-11T09:36:37;96941.06;;;12.18;84.98
70968;BME280;58629;48.808;8.820;2023-05-11T09:39:02;96941.91;;;12.15;86.95
70968;BME280;58629;48.808;8.820;2023-05-11T09:41:30;96939.56;;;12.17;86.98
70968;BME280;58629;48.808;8.820;2023-05-11T09:44:08;96941.47;;;12.16;87.50
70968;BME280;58629;48.808;8.820;2023-05-11T09:46:37;96940.38;;;12.43;86.71
70968;BME280;58629;48.808;8.820;2023-05-11T09:49:03;96940.66;;;12.19;85.32
70968;BME280;58629;48.808;8.820;2023-05-11T09:51:31;96940.31;;;12.17;87.42
70968;BME280;58629;48.808;8.820;2023-05-11T09:53:57;96942.31;;;12.13;87.36
70968;BME280;58629;48.808;8.820;2023-05-11T09:56:42;96939.44;;;12.08;85.44
70968;BME280;58629;48.808;8.820;2023-05-11T09:59:07;96938.47;;;12.02;84.01
70968;BME280;58629;48.808;8.820;2023-05-11T10:01:35;96940.41;;;12.14;86.79
70968;BME280;58629;48.808;8.820;2023-05-11T10:04:02;96942.94;;;12.46;85.32
70968;BME280;58629;48.808;8.820;2023-05-11T10:06:48;96942.84;;;12.50;86.39
70968;BME280;58629;48.808;8.820;2023-05-11T10:09:15;96940.19;;;12.50;84.48
70968;BME280;58629;48.808;8.820;2023-05-11T10:11:45;96941.91;;;12.69;85.13
70968;BME280;58629;48.808;8.820;2023-05-11T10:14:14;96941.19;;;12.81;83.93
70968;BME280;58629;48.808;8.820;2023-05-11T10:16:41;96943.09;;;12.80;83.51
70968;BME280;58629;48.808;8.820;2023-05-11T10:19:13;96943.09;;;12.80;83.60
70968;BME280;58629;48.808;8.820;2023-05-11T10:21:39;96942.44;;;12.76;84.50
70968;BME280;58629;48.808;8.820;2023-05-11T10:24:05;96942.13;;;12.87;nan
70968;BME280;58629;48.808;8.820;2023-05-11T10:26:31;96940.50;;;12.64;83.16
70968;BME280;58629;48.808;8.820;2023-05-11T10:29:00;96940.50;;;12.52;83.84
70968;BME280;58629;48.808;8.820;2023-05-11T10:31:25;96937.97;;;12.61;85.72
70968;BME280;58629;48.808;8.820;2023-05-11T10:33:51;96941.66;;;12.51;86.77
70968;BME280;58629;48.808;8.820;2023-05-11T10:36:17;96936.47;;;12.47;84.71
70968;BME280;58629;48.808;8.820;2023-05-11T10:38:43;96932.94;;;12.50;86.62
70968;BME280;58629;48.808;8.820;2023-05-11T10:41:24;96934.66;;;12.57;84.42
70968;BME280;58629;48.808;8.820;2023-05-11T10:47:10;96937.84;;;12.52;87.50
70968;BME280;58629;48.808;8.820;2023-05-11T10:50:07;96931.78;;;12.51;85.18
70968;BME280;58629;48.808;8.820;2023-05-11T10:52:57;96933.28;;;12.52;87.37
70968;BME280;58629;48.808;8.820;2023-05-11T10:55:37;96935.09;;;12.68;88.57
70968;BME280;58629;48.808;8.820;2023-05-11T11:01:39;96925.13;;;12.84;86.36
70968;BME280;58629;48.808;8.820;2023-05-11T11:04:09;96921.31;;;12.85;85.70
70968;BME280;58629;48.808;8.820;2023-05-11T11:06:37;96923.09;;;12.88;82.71
70968;BME280;58629;48.808;8.820;2023-05-11T11:09:13;96922.78;;;13.12;83.88
70968;BME280;58629;48.808;8.820;2023-05-11T11:11:41;96926.19;;;13.12;83.94
70968;BME280;58629;48.808;8.820;2023-05-11T11:14:10;96914.81;;;13.24;82.12
70968;BME280;58629;48.808;8.820;2023-05-11T11:16:36;96914.94;;;13.08;81.99
70968;BME280;58629;48.808;8.820;2023-05-11T11:21:54;96904.91;;;13.59;78.42
70968;BME280;58629;48.808;8.820;2023-05-11T11:27:04;96922.66;;;13.40;79.44
70968;BME280;58629;48.808;8.820;2023-05-11T11:29:30;96909.88;;;13.35;78.87
70968;BME280;58629;48.808;8.820;2023-05-11T11:34:50;96907.38;;;13.87;76.63
70968;BME280;58629;48.808;8.820;2023-05-11T11:37:16;96909.13;;;14.03;74.99
70968;BME280;58629;48.808;8.820;2023-05-11T11:42:16;96907.66;;;14.02;76.67
70968;BME280;58629;48.808;8.820;2023-05-11T11:44:43;96905.56;;;13.84;75.26
70968;BME280;58629;48.808;8.820;2023-05-11T11:47:16;96907.25;;;13.69;74.01
70968;BME280;58629;48.808;8.820;2023-05-11T11:49:50;96902.91;;;13.29;76.41
70968;BME280;58629;48.808;8.820;2023-05-11T11:54:52;96902.00;;;13.78;76.40
70968;BME280;58629;48.808;8.820;2023-05-11T12:00:03;96909.25;;;14.00;75.39
70968;BME280;58629;48.808;8.820;2023-05-11T12:02:31;96906.78;;;14.05;73.18
70968;BME280;58629;48.808;8.820;2023-05-11T12:05:00;96903.66;;;14.07;72.87
70968;BME280;58629;48.808;8.820;2023-05-11T12:07:32;96900.06;;;14.01;71.60
70968;BME280;58629;48.808;8.820;2023-05-11T12:09:58;96896.38;;;13.98;72.81
70968;BME280;58629;48.808;8.820;2023-05-11T12:12:26;96893.31;;;13.87;73.95
70968;BME280;58629;48.808;8.820;2023-05-11T12:14:51;96896.56;;;14.04;74.28
70968;BME280;58629;48.808;8.820;2023-05-11T12:17:28;96893.72;;;14.20;71.97
70968;BME280;58629;48.808;8.820;2023-05-11T12:19:55;96898.56;;;14.34;72.31
70968;BME280;58629;48.808;8.820;2023-05-11T12:22:35;96892.03;;;14.35;71.15
70968;BME280;58629;48.808;8.820;2023-05-11T12:25:04;96890.16;;;14.44;67.82
70968;BME280;58629;48.808;8.820;2023-05-11T12:27:29;96889.94;;;14.60;69.31
70968;BME280;58629;48.808;8.820;2023-05-11T12:29:55;96902.56;;;14.69;68.96
70968;BME280;58629;48.808;8.820;2023-05-11T12:32:28;96905.09;;;14.72;70.14
70968;BME280;58629;48.808;8.820;2023-05-11T12:34:58;96897.44;;;14.84;68.83
70968;BME280;58629;48.808;8.820;2023-05-11T12:37:24;96891.00;;;15.03;68.28
70968;BME280;58629;48.808;8.820;2023-05-11T12:39:54;96882.84;;;15.06;66.68
70968;BME280;58629;48.808;8.820;2023-05-11T12:42:20;96885.84;;;15.35;64.21
70968;BME280;58629;48.808;8.820;2023-05-11T12:44:45;96886.78;;;14.84;64.01
70968;BME280;58629;48.808;8.820;2023-05-11T12:47:10;96881.91;;;14.51;63.42
70968;BME280;58629;48.808;8.820;2023-05-11T12:49:36;96884.50;;;14.33;67.13
70968;BME280;58629;48.808;8.820;2023-05-11T12:52:05;96878.75;;;14.74;65.96
70968;BME280;58629;48.808;8.820;2023-05-11T12:54:38;96871.06;;;14.76;63.11
70968;BME280;58629;48.808;8.820;2023-05-11T12:57:06;96866.09;;;14.57;63.54
70968;BME280;58629;48.808;8.820;2023-05-11T12:59:37;96874.16;;;14.75;64.09
70968;BME280;58629;48.808;8.820;2023-05-11T13:02:17;96867.25;;;14.25;62.25
70968;BME280;58629;48.808;8.820;2023-05-11T13:04:43;96870.22;;;14.58;63.39
70968;BME280;58629;48.808;8.820;2023-05-11T13:07:09;96864.84;;;14.40;66.47
70968;BME280;58629;48.808;8.820;2023-05-11T13:09:35;96867.31;;;14.34;66.16
70968;BME280;58629;48.808;8.820;2023-05-11T13:14:37;96850.03;;;14.78;65.25
70968;BME280;58629;48.808;8.820;2023-05-11T13:17:03;96846.31;;;14.76;65.93
70968;BME280;58629;48.808;8.820;2023-05-11T13:19:30;96845.97;;;15.14;66.95
70968;BME280;58629;48.808;8.820;2023-05-11T13:21:56;96849.09;;;15.30;64.50
70968;BME280;58629;48.808;8.820;2023-05-11T13:24:22;96846.72;;;15.05;65.78
70968;BME280;58629;48.808;8.820;2023-05-11T13:26:48;96844.34;;;15.07;63.57
70968;BME280;58629;48.808;8.820;2023-05-11T13:29:13;96847.31;;;15.18;62.70
70968;BME280;58629;48.808;8.820;2023-05-11T13:31:46;96838.97;;;14.98;60.54
70968;BME280;58629;48.808;8.820;2023-05-11T13:34:12;96843.63;;;15.25;61.56